Airfield :
LOGIN :

Register | Disclaimer

   EN    FR    IT 

 










Legend :    VFR   Marginal VFR   IFR   Intensive IFR   Very Intensive IFR
Visi :
Ceiling :
>= 8 km
>= 3000ft
5 to 8 km
1000 to 3000 ft
1500m to 5 km
500 to 1000 ft
800 to 1500m
200 to 500 ft
< 800m
< 200 ft
Symbols :   Thunderstorms  Fog  Heavy snow  Heavy precipitations  Wind > 20 kt
SIGMETs :     Misc.  Thunderstorms  Icing  Turbulence  Mountain Waves  Volcanic Ashes






- Airport Elevation : 545 ft
- IATA code : PZY


LZPP - Piešťany

CURRENT METAR :
  • 210000Z AUTO 14005KT 110V180 9999 OVC069/// 05/M04 Q1020

EXPIRED METARs :
  • 202330Z AUTO VRB01KT 9999 OVC072/// 01/M02 Q1020
  • 202300Z AUTO VRB01KT 9999 OVC074/// 01/M03 Q1020
  • 202230Z AUTO VRB03KT 9999 OVC094/// M00/M03 Q1021
  • 202200Z AUTO VRB02KT 9999 SCT054/// OVC098/// 00/M04 Q1021
  • 202130Z AUTO VRB01KT 9999 FEW120/// M00/M03 Q1021

TAF TAF LZPP
Valid from the 20 at 18:00 until the 21 at 03:00 UTC


201700Z 2018/2103 23005KT CAVOK
BECMG 2020/2022 16010KT



MET'MAP, your aeronautical weather chart ! - Copyright ORBIFLY December 2007 - Disclaimer

ORBIFLY MET'MAP TEAM :

Programming & Development : Alexandra Zaïnal
Concept & original design : Baudouin d'Aumeries
Assistance for programming : Marc-Olivier Méhu
Technical & hardware support : Manuel Goepfert

Contact : metmap@orbifly.com




SOURCES & CREDITS :

   NOAA